sensor_id;sensor_type;location;lat;lon;timestamp;P1;durP1;ratioP1;P2;durP2;ratioP2
8536;SDS011;4306;50.210;10.628;2023-08-06T00:00:57;4.18;;;2.40;;
8536;SDS011;4306;50.210;10.628;2023-08-06T00:03:25;3.78;;;2.30;;
8536;SDS011;4306;50.210;10.628;2023-08-06T00:05:51;5.10;;;2.50;;
8536;SDS011;4306;50.210;10.628;2023-08-06T00:08:18;3.55;;;2.35;;
8536;SDS011;4306;50.210;10.628;2023-08-06T00:10:47;4.28;;;2.70;;
8536;SDS011;4306;50.210;10.628;2023-08-06T00:13:14;7.72;;;2.50;;
8536;SDS011;4306;50.210;10.628;2023-08-06T00:15:42;4.35;;;2.83;;
8536;SDS011;4306;50.210;10.628;2023-08-06T00:18:09;3.53;;;2.92;;
8536;SDS011;4306;50.210;10.628;2023-08-06T00:20:38;3.60;;;2.50;;
8536;SDS011;4306;50.210;10.628;2023-08-06T00:23:05;4.28;;;2.35;;
8536;SDS011;4306;50.210;10.628;2023-08-06T00:25:32;3.35;;;2.55;;
8536;SDS011;4306;50.210;10.628;2023-08-06T00:27:59;4.75;;;2.83;;
8536;SDS011;4306;50.210;10.628;2023-08-06T00:30:26;3.22;;;2.35;;
8536;SDS011;4306;50.210;10.628;2023-08-06T00:32:54;3.72;;;2.40;;
8536;SDS011;4306;50.210;10.628;2023-08-06T00:35:21;4.45;;;2.65;;
8536;SDS011;4306;50.210;10.628;2023-08-06T00:37:48;7.57;;;2.50;;
8536;SDS011;4306;50.210;10.628;2023-08-06T00:40:14;4.55;;;2.30;;
8536;SDS011;4306;50.210;10.628;2023-08-06T00:42:41;4.25;;;2.40;;
8536;SDS011;4306;50.210;10.628;2023-08-06T00:45:10;3.42;;;2.45;;
8536;SDS011;4306;50.210;10.628;2023-08-06T00:47:36;2.78;;;1.92;;
8536;SDS011;4306;50.210;10.628;2023-08-06T00:50:06;3.45;;;2.45;;
8536;SDS011;4306;50.210;10.628;2023-08-06T00:52:34;7.18;;;2.17;;
8536;SDS011;4306;50.210;10.628;2023-08-06T00:55:03;3.72;;;2.30;;
8536;SDS011;4306;50.210;10.628;2023-08-06T00:57:30;3.08;;;2.00;;
8536;SDS011;4306;50.210;10.628;2023-08-06T00:59:57;5.25;;;2.40;;
8536;SDS011;4306;50.210;10.628;2023-08-06T01:02:24;3.72;;;1.98;;
8536;SDS011;4306;50.210;10.628;2023-08-06T01:04:51;3.10;;;2.17;;
8536;SDS011;4306;50.210;10.628;2023-08-06T01:07:21;4.22;;;2.25;;
8536;SDS011;4306;50.210;10.628;2023-08-06T01:10:01;4.63;;;2.30;;
8536;SDS011;4306;50.210;10.628;2023-08-06T01:12:45;3.65;;;2.20;;
8536;SDS011;4306;50.210;10.628;2023-08-06T01:15:19;5.47;;;3.40;;
8536;SDS011;4306;50.210;10.628;2023-08-06T01:17:51;8.65;;;6.30;;
8536;SDS011;4306;50.210;10.628;2023-08-06T01:20:19;4.38;;;3.15;;
8536;SDS011;4306;50.210;10.628;2023-08-06T01:22:47;3.40;;;2.40;;
8536;SDS011;4306;50.210;10.628;2023-08-06T01:25:14;3.55;;;2.25;;
8536;SDS011;4306;50.210;10.628;2023-08-06T01:27:44;4.90;;;2.30;;
8536;SDS011;4306;50.210;10.628;2023-08-06T01:30:15;3.72;;;2.00;;
8536;SDS011;4306;50.210;10.628;2023-08-06T01:32:45;3.47;;;2.05;;
8536;SDS011;4306;50.210;10.628;2023-08-06T01:35:15;6.78;;;2.25;;
8536;SDS011;4306;50.210;10.628;2023-08-06T01:37:45;3.53;;;1.90;;
8536;SDS011;4306;50.210;10.628;2023-08-06T01:40:14;3.20;;;1.80;;
8536;SDS011;4306;50.210;10.628;2023-08-06T01:42:41;4.25;;;2.30;;
8536;SDS011;4306;50.210;10.628;2023-08-06T01:45:08;4.18;;;2.47;;
8536;SDS011;4306;50.210;10.628;2023-08-06T01:47:36;3.28;;;2.20;;
8536;SDS011;4306;50.210;10.628;2023-08-06T01:50:03;3.28;;;2.05;;
8536;SDS011;4306;50.210;10.628;2023-08-06T01:52:30;3.70;;;2.20;;
8536;SDS011;4306;50.210;10.628;2023-08-06T01:54:58;4.00;;;2.47;;
8536;SDS011;4306;50.210;10.628;2023-08-06T01:57:25;4.15;;;2.40;;
8536;SDS011;4306;50.210;10.628;2023-08-06T01:59:52;4.85;;;2.75;;
8536;SDS011;4306;50.210;10.628;2023-08-06T02:02:19;3.95;;;2.53;;
8536;SDS011;4306;50.210;10.628;2023-08-06T02:04:46;6.38;;;2.20;;
8536;SDS011;4306;50.210;10.628;2023-08-06T02:07:13;4.35;;;2.28;;
8536;SDS011;4306;50.210;10.628;2023-08-06T02:09:39;3.88;;;2.00;;
8536;SDS011;4306;50.210;10.628;2023-08-06T02:12:08;3.53;;;2.35;;
8536;SDS011;4306;50.210;10.628;2023-08-06T02:14:35;3.42;;;2.08;;
8536;SDS011;4306;50.210;10.628;2023-08-06T02:17:02;4.47;;;2.20;;
8536;SDS011;4306;50.210;10.628;2023-08-06T02:19:28;3.85;;;2.05;;
8536;SDS011;4306;50.210;10.628;2023-08-06T02:21:55;3.60;;;2.25;;
8536;SDS011;4306;50.210;10.628;2023-08-06T02:24:22;6.38;;;2.55;;
8536;SDS011;4306;50.210;10.628;2023-08-06T02:26:49;5.20;;;2.97;;
8536;SDS011;4306;50.210;10.628;2023-08-06T02:29:21;5.22;;;3.10;;
8536;SDS011;4306;50.210;10.628;2023-08-06T02:31:48;3.88;;;2.58;;
8536;SDS011;4306;50.210;10.628;2023-08-06T02:34:15;4.82;;;2.17;;
8536;SDS011;4306;50.210;10.628;2023-08-06T02:36:42;4.40;;;2.38;;
8536;SDS011;4306;50.210;10.628;2023-08-06T02:39:09;4.65;;;2.97;;
8536;SDS011;4306;50.210;10.628;2023-08-06T02:41:35;5.72;;;4.28;;
8536;SDS011;4306;50.210;10.628;2023-08-06T02:44:02;4.55;;;3.17;;
8536;SDS011;4306;50.210;10.628;2023-08-06T02:46:31;3.20;;;2.05;;
8536;SDS011;4306;50.210;10.628;2023-08-06T02:48:57;4.50;;;2.45;;
8536;SDS011;4306;50.210;10.628;2023-08-06T02:51:24;4.32;;;2.50;;
8536;SDS011;4306;50.210;10.628;2023-08-06T02:53:51;3.40;;;2.35;;
8536;SDS011;4306;50.210;10.628;2023-08-06T02:56:18;11.18;;;2.55;;
8536;SDS011;4306;50.210;10.628;2023-08-06T02:58:45;4.88;;;2.40;;
8536;SDS011;4306;50.210;10.628;2023-08-06T03:01:12;3.30;;;2.35;;
8536;SDS011;4306;50.210;10.628;2023-08-06T03:03:40;3.90;;;2.47;;
8536;SDS011;4306;50.210;10.628;2023-08-06T03:06:07;4.45;;;2.83;;
8536;SDS011;4306;50.210;10.628;2023-08-06T03:08:34;3.45;;;2.50;;
8536;SDS011;4306;50.210;10.628;2023-08-06T03:11:01;5.05;;;2.67;;
8536;SDS011;4306;50.210;10.628;2023-08-06T03:13:28;4.82;;;2.58;;
8536;SDS011;4306;50.210;10.628;2023-08-06T03:15:55;3.45;;;2.35;;
8536;SDS011;4306;50.210;10.628;2023-08-06T03:18:22;4.20;;;2.22;;
8536;SDS011;4306;50.210;10.628;2023-08-06T03:20:52;3.50;;;2.35;;
8536;SDS011;4306;50.210;10.628;2023-08-06T03:23:19;4.07;;;2.45;;
8536;SDS011;4306;50.210;10.628;2023-08-06T03:25:46;3.97;;;2.55;;
8536;SDS011;4306;50.210;10.628;2023-08-06T03:28:13;4.45;;;2.20;;
8536;SDS011;4306;50.210;10.628;2023-08-06T03:30:40;3.33;;;2.42;;
8536;SDS011;4306;50.210;10.628;2023-08-06T03:33:07;4.78;;;2.13;;
8536;SDS011;4306;50.210;10.628;2023-08-06T03:35:33;5.40;;;2.38;;
8536;SDS011;4306;50.210;10.628;2023-08-06T03:38:02;3.80;;;2.40;;
8536;SDS011;4306;50.210;10.628;2023-08-06T03:40:28;3.22;;;2.08;;
8536;SDS011;4306;50.210;10.628;2023-08-06T03:42:55;2.85;;;1.95;;
8536;SDS011;4306;50.210;10.628;2023-08-06T03:45:22;3.67;;;2.10;;
8536;SDS011;4306;50.210;10.628;2023-08-06T03:47:49;2.75;;;2.00;;
8536;SDS011;4306;50.210;10.628;2023-08-06T03:50:16;4.43;;;2.15;;
8536;SDS011;4306;50.210;10.628;2023-08-06T03:52:43;5.13;;;2.20;;
8536;SDS011;4306;50.210;10.628;2023-08-06T03:55:11;3.42;;;2.10;;
8536;SDS011;4306;50.210;10.628;2023-08-06T03:57:38;5.00;;;2.42;;
8536;SDS011;4306;50.210;10.628;2023-08-06T04:00:05;3.50;;;2.22;;
8536;SDS011;4306;50.210;10.628;2023-08-06T04:02:33;2.85;;;2.08;;
8536;SDS011;4306;50.210;10.628;2023-08-06T04:05:00;3.53;;;2.30;;
8536;SDS011;4306;50.210;10.628;2023-08-06T04:07:27;3.80;;;2.28;;
8536;SDS011;4306;50.210;10.628;2023-08-06T04:09:54;7.13;;;2.63;;
8536;SDS011;4306;50.210;10.628;2023-08-06T04:12:26;3.30;;;1.98;;
8536;SDS011;4306;50.210;10.628;2023-08-06T04:14:54;6.38;;;2.80;;
8536;SDS011;4306;50.210;10.628;2023-08-06T04:17:21;3.50;;;2.15;;
8536;SDS011;4306;50.210;10.628;2023-08-06T04:19:49;6.43;;;2.22;;
8536;SDS011;4306;50.210;10.628;2023-08-06T04:22:17;3.45;;;2.28;;
8536;SDS011;4306;50.210;10.628;2023-08-06T04:24:44;4.32;;;2.40;;
8536;SDS011;4306;50.210;10.628;2023-08-06T04:27:11;9.52;;;2.47;;
8536;SDS011;4306;50.210;10.628;2023-08-06T04:29:40;4.70;;;2.25;;
8536;SDS011;4306;50.210;10.628;2023-08-06T04:32:08;3.50;;;2.33;;
8536;SDS011;4306;50.210;10.628;2023-08-06T04:34:36;3.30;;;2.28;;
8536;SDS011;4306;50.210;10.628;2023-08-06T04:37:04;4.63;;;2.47;;
8536;SDS011;4306;50.210;10.628;2023-08-06T04:39:31;4.35;;;2.70;;
8536;SDS011;4306;50.210;10.628;2023-08-06T04:41:58;6.25;;;2.60;;
8536;SDS011;4306;50.210;10.628;2023-08-06T04:44:25;5.78;;;2.35;;
8536;SDS011;4306;50.210;10.628;2023-08-06T04:46:53;3.38;;;2.40;;
8536;SDS011;4306;50.210;10.628;2023-08-06T04:49:20;3.55;;;2.50;;
8536;SDS011;4306;50.210;10.628;2023-08-06T04:51:47;3.88;;;2.78;;
8536;SDS011;4306;50.210;10.628;2023-08-06T04:54:14;5.95;;;2.70;;
8536;SDS011;4306;50.210;10.628;2023-08-06T04:56:41;5.10;;;2.80;;
8536;SDS011;4306;50.210;10.628;2023-08-06T04:59:08;3.42;;;2.35;;
8536;SDS011;4306;50.210;10.628;2023-08-06T05:01:35;3.58;;;2.50;;
8536;SDS011;4306;50.210;10.628;2023-08-06T05:04:03;3.80;;;2.47;;
8536;SDS011;4306;50.210;10.628;2023-08-06T05:06:30;4.30;;;2.63;;
8536;SDS011;4306;50.210;10.628;2023-08-06T05:08:57;3.75;;;2.30;;
8536;SDS011;4306;50.210;10.628;2023-08-06T05:11:23;5.88;;;2.85;;
8536;SDS011;4306;50.210;10.628;2023-08-06T05:13:50;5.07;;;2.30;;
8536;SDS011;4306;50.210;10.628;2023-08-06T05:16:17;3.67;;;2.17;;
8536;SDS011;4306;50.210;10.628;2023-08-06T05:18:44;3.72;;;2.50;;
8536;SDS011;4306;50.210;10.628;2023-08-06T05:21:12;3.53;;;2.63;;
8536;SDS011;4306;50.210;10.628;2023-08-06T05:23:39;5.43;;;2.75;;
8536;SDS011;4306;50.210;10.628;2023-08-06T05:26:06;3.67;;;2.63;;
8536;SDS011;4306;50.210;10.628;2023-08-06T05:28:33;3.70;;;2.70;;
8536;SDS011;4306;50.210;10.628;2023-08-06T05:31:02;3.80;;;2.60;;
8536;SDS011;4306;50.210;10.628;2023-08-06T05:33:30;3.10;;;2.20;;
8536;SDS011;4306;50.210;10.628;2023-08-06T05:35:56;5.45;;;2.25;;
8536;SDS011;4306;50.210;10.628;2023-08-06T05:38:25;3.95;;;2.05;;
8536;SDS011;4306;50.210;10.628;2023-08-06T05:40:52;2.97;;;2.15;;
8536;SDS011;4306;50.210;10.628;2023-08-06T05:43:29;3.20;;;2.35;;
8536;SDS011;4306;50.210;10.628;2023-08-06T05:45:56;3.47;;;2.30;;
8536;SDS011;4306;50.210;10.628;2023-08-06T05:48:23;3.35;;;2.22;;
8536;SDS011;4306;50.210;10.628;2023-08-06T05:50:50;5.82;;;3.00;;
8536;SDS011;4306;50.210;10.628;2023-08-06T05:53:17;3.95;;;2.25;;
8536;SDS011;4306;50.210;10.628;2023-08-06T05:55:46;3.60;;;2.35;;
8536;SDS011;4306;50.210;10.628;2023-08-06T05:58:13;3.50;;;2.35;;
8536;SDS011;4306;50.210;10.628;2023-08-06T06:00:40;6.18;;;2.63;;
8536;SDS011;4306;50.210;10.628;2023-08-06T06:03:07;3.88;;;2.40;;
8536;SDS011;4306;50.210;10.628;2023-08-06T06:05:34;3.42;;;2.35;;
8536;SDS011;4306;50.210;10.628;2023-08-06T06:08:00;3.17;;;1.95;;
8536;SDS011;4306;50.210;10.628;2023-08-06T06:10:27;2.53;;;1.80;;
8536;SDS011;4306;50.210;10.628;2023-08-06T06:12:55;2.90;;;2.15;;
8536;SDS011;4306;50.210;10.628;2023-08-06T06:15:22;3.47;;;2.50;;
8536;SDS011;4306;50.210;10.628;2023-08-06T06:17:49;3.53;;;2.35;;
8536;SDS011;4306;50.210;10.628;2023-08-06T06:20:16;3.47;;;2.10;;
8536;SDS011;4306;50.210;10.628;2023-08-06T06:22:43;3.53;;;2.20;;
8536;SDS011;4306;50.210;10.628;2023-08-06T06:25:10;5.18;;;2.17;;
8536;SDS011;4306;50.210;10.628;2023-08-06T06:27:37;3.10;;;1.92;;
8536;SDS011;4306;50.210;10.628;2023-08-06T06:30:06;3.33;;;2.00;;
8536;SDS011;4306;50.210;10.628;2023-08-06T06:32:34;3.30;;;1.85;;
8536;SDS011;4306;50.210;10.628;2023-08-06T06:35:00;3.70;;;1.80;;
8536;SDS011;4306;50.210;10.628;2023-08-06T06:37:27;3.30;;;2.10;;
8536;SDS011;4306;50.210;10.628;2023-08-06T06:39:54;3.67;;;1.73;;
8536;SDS011;4306;50.210;10.628;2023-08-06T06:42:21;2.83;;;1.70;;
8536;SDS011;4306;50.210;10.628;2023-08-06T06:44:48;3.08;;;1.60;;
8536;SDS011;4306;50.210;10.628;2023-08-06T06:47:17;3.25;;;1.95;;
8536;SDS011;4306;50.210;10.628;2023-08-06T06:49:44;4.30;;;1.80;;
8536;SDS011;4306;50.210;10.628;2023-08-06T06:52:11;3.05;;;1.60;;
8536;SDS011;4306;50.210;10.628;2023-08-06T06:54:38;2.85;;;1.60;;
8536;SDS011;4306;50.210;10.628;2023-08-06T06:57:05;3.70;;;1.70;;
8536;SDS011;4306;50.210;10.628;2023-08-06T06:59:32;2.65;;;1.70;;
8536;SDS011;4306;50.210;10.628;2023-08-06T07:01:59;2.63;;;1.70;;
8536;SDS011;4306;50.210;10.628;2023-08-06T07:04:27;3.45;;;1.80;;
8536;SDS011;4306;50.210;10.628;2023-08-06T07:06:54;4.40;;;1.92;;
8536;SDS011;4306;50.210;10.628;2023-08-06T07:09:21;4.93;;;1.73;;
8536;SDS011;4306;50.210;10.628;2023-08-06T07:11:47;3.63;;;1.80;;
8536;SDS011;4306;50.210;10.628;2023-08-06T07:14:14;6.03;;;1.75;;
8536;SDS011;4306;50.210;10.628;2023-08-06T07:16:41;2.35;;;1.50;;
8536;SDS011;4306;50.210;10.628;2023-08-06T07:19:08;2.90;;;1.50;;
8536;SDS011;4306;50.210;10.628;2023-08-06T07:21:36;3.38;;;1.75;;
8536;SDS011;4306;50.210;10.628;2023-08-06T07:24:03;2.40;;;1.27;;
8536;SDS011;4306;50.210;10.628;2023-08-06T07:26:30;2.88;;;1.63;;
8536;SDS011;4306;50.210;10.628;2023-08-06T07:28:57;2.97;;;1.70;;
8536;SDS011;4306;50.210;10.628;2023-08-06T07:31:24;4.65;;;1.67;;
8536;SDS011;4306;50.210;10.628;2023-08-06T07:33:51;2.92;;;1.65;;
8536;SDS011;4306;50.210;10.628;2023-08-06T07:36:17;2.13;;;1.48;;
8536;SDS011;4306;50.210;10.628;2023-08-06T07:38:46;2.70;;;1.50;;
8536;SDS011;4306;50.210;10.628;2023-08-06T07:41:16;6.65;;;1.70;;
8536;SDS011;4306;50.210;10.628;2023-08-06T07:43:43;2.28;;;1.30;;
8536;SDS011;4306;50.210;10.628;2023-08-06T07:46:10;2.33;;;1.30;;
8536;SDS011;4306;50.210;10.628;2023-08-06T07:48:38;3.72;;;1.75;;
8536;SDS011;4306;50.210;10.628;2023-08-06T07:51:05;3.95;;;1.73;;
8536;SDS011;4306;50.210;10.628;2023-08-06T07:53:32;4.50;;;1.80;;
8536;SDS011;4306;50.210;10.628;2023-08-06T07:56:00;2.97;;;1.60;;
8536;SDS011;4306;50.210;10.628;2023-08-06T07:58:28;4.75;;;1.77;;
8536;SDS011;4306;50.210;10.628;2023-08-06T08:00:55;3.40;;;1.40;;
8536;SDS011;4306;50.210;10.628;2023-08-06T08:03:22;4.03;;;1.70;;
8536;SDS011;4306;50.210;10.628;2023-08-06T08:05:49;2.83;;;1.63;;
8536;SDS011;4306;50.210;10.628;2023-08-06T08:08:17;3.85;;;1.42;;
8536;SDS011;4306;50.210;10.628;2023-08-06T08:10:44;5.32;;;1.60;;
8536;SDS011;4306;50.210;10.628;2023-08-06T08:13:12;4.03;;;1.80;;
8536;SDS011;4306;50.210;10.628;2023-08-06T08:15:39;2.20;;;1.38;;
8536;SDS011;4306;50.210;10.628;2023-08-06T08:18:05;2.25;;;1.50;;
8536;SDS011;4306;50.210;10.628;2023-08-06T08:20:33;2.25;;;1.20;;
8536;SDS011;4306;50.210;10.628;2023-08-06T08:23:01;4.25;;;1.67;;
8536;SDS011;4306;50.210;10.628;2023-08-06T08:25:28;2.20;;;1.25;;
8536;SDS011;4306;50.210;10.628;2023-08-06T08:27:56;2.47;;;1.50;;
8536;SDS011;4306;50.210;10.628;2023-08-06T08:30:25;4.40;;;1.40;;
8536;SDS011;4306;50.210;10.628;2023-08-06T08:32:52;2.00;;;1.10;;
8536;SDS011;4306;50.210;10.628;2023-08-06T08:35:19;2.28;;;1.30;;
8536;SDS011;4306;50.210;10.628;2023-08-06T08:37:46;1.70;;;0.90;;
8536;SDS011;4306;50.210;10.628;2023-08-06T08:40:13;3.40;;;1.20;;
8536;SDS011;4306;50.210;10.628;2023-08-06T08:42:40;1.48;;;1.15;;
8536;SDS011;4306;50.210;10.628;2023-08-06T08:45:11;3.25;;;1.20;;
8536;SDS011;4306;50.210;10.628;2023-08-06T08:47:41;2.28;;;1.48;;
8536;SDS011;4306;50.210;10.628;2023-08-06T08:50:08;2.38;;;1.25;;
8536;SDS011;4306;50.210;10.628;2023-08-06T08:52:36;1.98;;;1.10;;
8536;SDS011;4306;50.210;10.628;2023-08-06T08:55:05;2.55;;;1.33;;
8536;SDS011;4306;50.210;10.628;2023-08-06T08:57:34;2.90;;;1.40;;
8536;SDS011;4306;50.210;10.628;2023-08-06T09:00:01;1.92;;;1.13;;
8536;SDS011;4306;50.210;10.628;2023-08-06T09:02:28;2.40;;;1.30;;
8536;SDS011;4306;50.210;10.628;2023-08-06T09:04:58;2.83;;;1.20;;
8536;SDS011;4306;50.210;10.628;2023-08-06T09:07:27;1.58;;;1.10;;
8536;SDS011;4306;50.210;10.628;2023-08-06T09:09:58;1.88;;;1.02;;
8536;SDS011;4306;50.210;10.628;2023-08-06T09:12:30;3.22;;;1.67;;
8536;SDS011;4306;50.210;10.628;2023-08-06T09:14:57;1.75;;;1.08;;
8536;SDS011;4306;50.210;10.628;2023-08-06T09:17:24;1.35;;;1.08;;
8536;SDS011;4306;50.210;10.628;2023-08-06T09:19:53;2.63;;;1.10;;
8536;SDS011;4306;50.210;10.628;2023-08-06T09:22:21;6.72;;;1.02;;
8536;SDS011;4306;50.210;10.628;2023-08-06T09:24:48;2.05;;;1.15;;
8536;SDS011;4306;50.210;10.628;2023-08-06T09:27:14;3.13;;;1.10;;
8536;SDS011;4306;50.210;10.628;2023-08-06T09:29:44;3.22;;;1.20;;
8536;SDS011;4306;50.210;10.628;2023-08-06T09:32:11;1.80;;;1.08;;
8536;SDS011;4306;50.210;10.628;2023-08-06T09:34:39;3.33;;;1.00;;
8536;SDS011;4306;50.210;10.628;2023-08-06T09:37:08;2.60;;;1.27;;
8536;SDS011;4306;50.210;10.628;2023-08-06T09:39:38;1.98;;;1.20;;
8536;SDS011;4306;50.210;10.628;2023-08-06T09:42:06;1.75;;;0.93;;
8536;SDS011;4306;50.210;10.628;2023-08-06T09:44:33;1.88;;;0.98;;
8536;SDS011;4306;50.210;10.628;2023-08-06T09:47:01;2.28;;;1.20;;
8536;SDS011;4306;50.210;10.628;2023-08-06T09:49:40;1.77;;;1.00;;
8536;SDS011;4306;50.210;10.628;2023-08-06T09:52:08;2.58;;;1.20;;
8536;SDS011;4306;50.210;10.628;2023-08-06T09:54:39;1.73;;;0.90;;
8536;SDS011;4306;50.210;10.628;2023-08-06T09:57:06;2.75;;;0.80;;
8536;SDS011;4306;50.210;10.628;2023-08-06T09:59:33;0.75;;;0.68;;
8536;SDS011;4306;50.210;10.628;2023-08-06T10:02:01;0.52;;;0.50;;
8536;SDS011;4306;50.210;10.628;2023-08-06T10:04:34;2.28;;;0.60;;
8536;SDS011;4306;50.210;10.628;2023-08-06T10:07:01;0.93;;;0.70;;
8536;SDS011;4306;50.210;10.628;2023-08-06T10:09:28;2.30;;;0.90;;
8536;SDS011;4306;50.210;10.628;2023-08-06T10:11:56;1.42;;;0.80;;
8536;SDS011;4306;50.210;10.628;2023-08-06T10:14:26;1.13;;;0.85;;
8536;SDS011;4306;50.210;10.628;2023-08-06T10:16:57;1.15;;;0.88;;
8536;SDS011;4306;50.210;10.628;2023-08-06T10:19:25;1.48;;;0.80;;
8536;SDS011;4306;50.210;10.628;2023-08-06T10:22:09;1.77;;;0.70;;
8536;SDS011;4306;50.210;10.628;2023-08-06T10:27:28;1.08;;;0.68;;
8536;SDS011;4306;50.210;10.628;2023-08-06T10:30:09;1.52;;;0.75;;
8536;SDS011;4306;50.210;10.628;2023-08-06T10:32:48;1.02;;;0.60;;
8536;SDS011;4306;50.210;10.628;2023-08-06T10:35:28;1.58;;;0.70;;
8536;SDS011;4306;50.210;10.628;2023-08-06T10:38:03;0.50;;;0.50;;
8536;SDS011;4306;50.210;10.628;2023-08-06T10:40:31;0.80;;;0.70;;
8536;SDS011;4306;50.210;10.628;2023-08-06T10:43:00;1.13;;;0.60;;
8536;SDS011;4306;50.210;10.628;2023-08-06T10:45:27;1.15;;;0.70;;
8536;SDS011;4306;50.210;10.628;2023-08-06T10:47:55;0.40;;;0.40;;
8536;SDS011;4306;50.210;10.628;2023-08-06T10:50:23;0.50;;;0.50;;
8536;SDS011;4306;50.210;10.628;2023-08-06T10:52:50;0.50;;;0.50;;
8536;SDS011;4306;50.210;10.628;2023-08-06T10:55:24;1.13;;;0.60;;
8536;SDS011;4306;50.210;10.628;2023-08-06T10:57:52;0.63;;;0.50;;
8536;SDS011;4306;50.210;10.628;2023-08-06T11:00:21;0.63;;;0.55;;
8536;SDS011;4306;50.210;10.628;2023-08-06T11:02:49;1.48;;;0.63;;
8536;SDS011;4306;50.210;10.628;2023-08-06T11:05:16;1.30;;;0.70;;
8536;SDS011;4306;50.210;10.628;2023-08-06T11:07:43;1.63;;;0.70;;
8536;SDS011;4306;50.210;10.628;2023-08-06T11:10:11;0.50;;;0.50;;
8536;SDS011;4306;50.210;10.628;2023-08-06T11:12:38;1.48;;;0.80;;
8536;SDS011;4306;50.210;10.628;2023-08-06T11:15:06;1.77;;;0.60;;
8536;SDS011;4306;50.210;10.628;2023-08-06T11:17:35;1.08;;;0.52;;
8536;SDS011;4306;50.210;10.628;2023-08-06T11:20:03;0.70;;;0.50;;
8536;SDS011;4306;50.210;10.628;2023-08-06T11:22:31;0.73;;;0.60;;
8536;SDS011;4306;50.210;10.628;2023-08-06T11:24:58;0.85;;;0.55;;
8536;SDS011;4306;50.210;10.628;2023-08-06T11:27:27;0.60;;;0.50;;
8536;SDS011;4306;50.210;10.628;2023-08-06T11:29:54;0.73;;;0.50;;
8536;SDS011;4306;50.210;10.628;2023-08-06T11:32:21;0.40;;;0.40;;
8536;SDS011;4306;50.210;10.628;2023-08-06T11:34:49;0.50;;;0.50;;
8536;SDS011;4306;50.210;10.628;2023-08-06T11:37:16;2.28;;;1.20;;
8536;SDS011;4306;50.210;10.628;2023-08-06T11:39:48;0.90;;;0.68;;
8536;SDS011;4306;50.210;10.628;2023-08-06T11:42:15;1.05;;;0.52;;
8536;SDS011;4306;50.210;10.628;2023-08-06T11:44:42;0.63;;;0.50;;
8536;SDS011;4306;50.210;10.628;2023-08-06T11:47:12;0.40;;;0.40;;
8536;SDS011;4306;50.210;10.628;2023-08-06T11:49:43;0.45;;;0.43;;
8536;SDS011;4306;50.210;10.628;2023-08-06T11:52:16;1.30;;;0.80;;
8536;SDS011;4306;50.210;10.628;2023-08-06T11:54:46;0.95;;;0.82;;
8536;SDS011;4306;50.210;10.628;2023-08-06T11:57:13;0.82;;;0.50;;
8536;SDS011;4306;50.210;10.628;2023-08-06T11:59:41;0.95;;;0.50;;
8536;SDS011;4306;50.210;10.628;2023-08-06T12:02:08;0.82;;;0.60;;
8536;SDS011;4306;50.210;10.628;2023-08-06T12:04:57;0.88;;;0.60;;
8536;SDS011;4306;50.210;10.628;2023-08-06T12:07:28;2.78;;;0.80;;
8536;SDS011;4306;50.210;10.628;2023-08-06T12:09:55;0.60;;;0.60;;
8536;SDS011;4306;50.210;10.628;2023-08-06T12:12:22;0.70;;;0.60;;
8536;SDS011;4306;50.210;10.628;2023-08-06T12:14:50;0.52;;;0.52;;
8536;SDS011;4306;50.210;10.628;2023-08-06T12:17:17;0.60;;;0.60;;
8536;SDS011;4306;50.210;10.628;2023-08-06T12:19:44;0.50;;;0.50;;
8536;SDS011;4306;50.210;10.628;2023-08-06T12:22:12;0.82;;;0.50;;
8536;SDS011;4306;50.210;10.628;2023-08-06T12:24:40;1.15;;;0.85;;
8536;SDS011;4306;50.210;10.628;2023-08-06T12:27:07;0.90;;;0.60;;
8536;SDS011;4306;50.210;10.628;2023-08-06T12:29:34;0.65;;;0.60;;
8536;SDS011;4306;50.210;10.628;2023-08-06T12:32:01;0.93;;;0.60;;
8536;SDS011;4306;50.210;10.628;2023-08-06T12:34:29;0.50;;;0.50;;
8536;SDS011;4306;50.210;10.628;2023-08-06T12:36:56;0.40;;;0.40;;
8536;SDS011;4306;50.210;10.628;2023-08-06T12:39:23;0.95;;;0.70;;
8536;SDS011;4306;50.210;10.628;2023-08-06T12:41:51;2.83;;;0.73;;
8536;SDS011;4306;50.210;10.628;2023-08-06T12:44:18;1.30;;;0.60;;
8536;SDS011;4306;50.210;10.628;2023-08-06T12:46:45;0.60;;;0.60;;
8536;SDS011;4306;50.210;10.628;2023-08-06T12:49:12;0.90;;;0.70;;
8536;SDS011;4306;50.210;10.628;2023-08-06T12:51:39;1.50;;;0.60;;
8536;SDS011;4306;50.210;10.628;2023-08-06T12:54:05;0.75;;;0.60;;
8536;SDS011;4306;50.210;10.628;2023-08-06T12:56:33;0.73;;;0.50;;
8536;SDS011;4306;50.210;10.628;2023-08-06T12:59:01;0.57;;;0.57;;
8536;SDS011;4306;50.210;10.628;2023-08-06T13:01:28;0.93;;;0.60;;
8536;SDS011;4306;50.210;10.628;2023-08-06T13:03:55;0.50;;;0.50;;
8536;SDS011;4306;50.210;10.628;2023-08-06T13:06:22;0.50;;;0.50;;
8536;SDS011;4306;50.210;10.628;2023-08-06T13:08:49;1.33;;;0.85;;
8536;SDS011;4306;50.210;10.628;2023-08-06T13:11:15;0.98;;;0.60;;
8536;SDS011;4306;50.210;10.628;2023-08-06T13:13:44;1.38;;;0.85;;
8536;SDS011;4306;50.210;10.628;2023-08-06T13:16:12;0.85;;;0.50;;
8536;SDS011;4306;50.210;10.628;2023-08-06T13:18:39;0.50;;;0.43;;
8536;SDS011;4306;50.210;10.628;2023-08-06T13:21:06;0.60;;;0.60;;
8536;SDS011;4306;50.210;10.628;2023-08-06T13:23:33;1.75;;;0.47;;
8536;SDS011;4306;50.210;10.628;2023-08-06T13:25:59;0.50;;;0.50;;
8536;SDS011;4306;50.210;10.628;2023-08-06T13:28:26;0.93;;;0.40;;
8536;SDS011;4306;50.210;10.628;2023-08-06T13:30:53;0.50;;;0.50;;
8536;SDS011;4306;50.210;10.628;2023-08-06T13:33:22;0.43;;;0.43;;
8536;SDS011;4306;50.210;10.628;2023-08-06T13:35:49;0.40;;;0.40;;
8536;SDS011;4306;50.210;10.628;2023-08-06T13:38:16;2.65;;;0.40;;
8536;SDS011;4306;50.210;10.628;2023-08-06T13:40:43;0.65;;;0.57;;
8536;SDS011;4306;50.210;10.628;2023-08-06T13:43:11;2.38;;;1.05;;
8536;SDS011;4306;50.210;10.628;2023-08-06T13:45:38;0.85;;;0.40;;
8536;SDS011;4306;50.210;10.628;2023-08-06T13:48:05;0.75;;;0.50;;
8536;SDS011;4306;50.210;10.628;2023-08-06T13:50:33;0.30;;;0.30;;
8536;SDS011;4306;50.210;10.628;2023-08-06T13:53:00;1.08;;;0.45;;
8536;SDS011;4306;50.210;10.628;2023-08-06T13:55:27;0.95;;;0.50;;
8536;SDS011;4306;50.210;10.628;2023-08-06T13:57:55;0.43;;;0.43;;
8536;SDS011;4306;50.210;10.628;2023-08-06T14:00:22;0.40;;;0.40;;
8536;SDS011;4306;50.210;10.628;2023-08-06T14:02:49;0.85;;;0.43;;
8536;SDS011;4306;50.210;10.628;2023-08-06T14:05:15;0.82;;;0.50;;
8536;SDS011;4306;50.210;10.628;2023-08-06T14:07:43;0.50;;;0.40;;
8536;SDS011;4306;50.210;10.628;2023-08-06T14:10:10;1.65;;;0.40;;
8536;SDS011;4306;50.210;10.628;2023-08-06T14:12:38;0.43;;;0.35;;
8536;SDS011;4306;50.210;10.628;2023-08-06T14:15:05;3.85;;;0.57;;
8536;SDS011;4306;50.210;10.628;2023-08-06T14:17:33;2.90;;;0.60;;
8536;SDS011;4306;50.210;10.628;2023-08-06T14:19:59;0.77;;;0.50;;
8536;SDS011;4306;50.210;10.628;2023-08-06T14:22:28;1.95;;;0.43;;
8536;SDS011;4306;50.210;10.628;2023-08-06T14:24:57;4.18;;;0.60;;
8536;SDS011;4306;50.210;10.628;2023-08-06T14:27:24;0.70;;;0.40;;
8536;SDS011;4306;50.210;10.628;2023-08-06T14:29:51;3.22;;;0.88;;
8536;SDS011;4306;50.210;10.628;2023-08-06T14:32:18;1.75;;;0.57;;
8536;SDS011;4306;50.210;10.628;2023-08-06T14:34:44;0.70;;;0.40;;
8536;SDS011;4306;50.210;10.628;2023-08-06T14:37:11;1.15;;;0.50;;
8536;SDS011;4306;50.210;10.628;2023-08-06T14:39:38;1.40;;;0.75;;
8536;SDS011;4306;50.210;10.628;2023-08-06T14:42:06;1.83;;;0.43;;
8536;SDS011;4306;50.210;10.628;2023-08-06T14:44:33;1.77;;;0.52;;
8536;SDS011;4306;50.210;10.628;2023-08-06T14:47:00;2.53;;;0.52;;
8536;SDS011;4306;50.210;10.628;2023-08-06T14:49:27;1.80;;;1.10;;
8536;SDS011;4306;50.210;10.628;2023-08-06T14:51:54;0.52;;;0.52;;
8536;SDS011;4306;50.210;10.628;2023-08-06T14:54:24;1.70;;;0.52;;
8536;SDS011;4306;50.210;10.628;2023-08-06T14:56:51;1.05;;;0.50;;
8536;SDS011;4306;50.210;10.628;2023-08-06T14:59:19;1.13;;;0.57;;
8536;SDS011;4306;50.210;10.628;2023-08-06T15:01:46;1.50;;;0.40;;
8536;SDS011;4306;50.210;10.628;2023-08-06T15:04:13;0.55;;;0.40;;
8536;SDS011;4306;50.210;10.628;2023-08-06T15:06:40;0.60;;;0.35;;